Time;durP1;ratioP1;P1;durP2;ratioP2;P2;SDS_P1;SDS_P2;PMS_P1;PMS_P2;Temp;Humidity;BMP_temperature;BMP_pressure;BME280_temperature;BME280_humidity;BME280_pressure;Samples;Min_cycle;Max_cycle;Signal;HPM_P1;HPM_P2
2021/07/14 00:08:31;;;;;;;13.70;4.35;;;18.10;99.90;;;;;;20444350;28;20039;-49
2021/07/14 00:28:52;;;;;;;9.95;3.83;;;18.20;99.90;;;;;;20449895;28;20047;-48
2021/07/14 00:38:53;;;;;;;18.00;3.92;;;18.10;99.90;;;;;;20447960;28;20050;-48
2021/07/14 00:48:58;;;;;;;9.25;3.25;;;18.20;99.90;;;;;;20462118;28;20071;-48
2021/07/14 00:58:59;;;;;;;7.63;3.17;;;18.00;99.90;;;;;;20462774;28;20051;-48
2021/07/14 01:09:09;;;;;;;13.95;3.95;;;18.10;99.90;;;;;;20458157;28;20039;-48
2021/07/14 01:19:37;;;;;;;7.60;3.42;;;18.00;99.90;;;;;;20459856;28;20046;-48
2021/07/14 01:29:49;;;;;;;11.50;4.30;;;18.10;99.90;;;;;;20462346;28;20047;-48
2021/07/14 01:39:52;;;;;;;8.35;3.85;;;18.10;99.90;;;;;;20458091;28;20546;-48
2021/07/14 01:49:56;;;;;;;11.57;3.85;;;18.00;99.90;;;;;;20460669;28;20039;-48
2021/07/14 01:59:58;;;;;;;10.45;3.67;;;18.00;99.90;;;;;;20461128;28;20039;-48
2021/07/14 02:09:59;;;;;;;13.75;3.88;;;18.10;99.90;;;;;;20472158;28;20110;-48
2021/07/14 02:20:07;;;;;;;9.50;4.32;;;18.10;99.90;;;;;;20466198;28;20122;-48
2021/07/14 02:30:21;;;;;;;8.95;3.33;;;18.00;99.90;;;;;;20464574;28;20061;-48
2021/07/14 02:40:48;;;;;;;10.73;3.55;;;18.00;99.90;;;;;;20465136;28;20043;-48
2021/07/14 02:50:51;;;;;;;8.20;3.37;;;18.00;99.90;;;;;;20462037;28;20043;-48
2021/07/14 03:00:54;;;;;;;14.48;4.22;;;17.90;99.90;;;;;;20461253;28;20035;-48
2021/07/14 03:10:56;;;;;;;10.07;3.58;;;18.10;99.90;;;;;;20458416;28;20046;-48
2021/07/14 03:21:00;;;;;;;11.45;4.70;;;18.10;99.90;;;;;;20463845;28;20129;-48
2021/07/14 03:31:04;;;;;;;10.48;3.92;;;18.10;99.90;;;;;;20461594;28;20031;-49
2021/07/14 03:41:06;;;;;;;8.80;2.92;;;17.80;99.90;;;;;;20461401;28;20053;-49
2021/07/14 03:51:08;;;;;;;6.00;1.85;;;17.80;99.90;;;;;;20462284;28;20043;-49
2021/07/14 04:01:17;;;;;;;6.65;3.05;;;17.80;99.90;;;;;;20459902;28;20049;-48
2021/07/14 04:11:18;;;;;;;7.18;2.72;;;17.90;99.90;;;;;;20459175;28;20043;-48
2021/07/14 04:21:19;;;;;;;4.95;2.95;;;17.90;99.90;;;;;;20459646;28;20167;-48
2021/07/14 04:31:21;;;;;;;7.75;2.97;;;17.80;99.90;;;;;;20459607;28;20178;-48
2021/07/14 04:41:22;;;;;;;5.93;2.22;;;17.80;99.90;;;;;;20458921;28;20039;-49
2021/07/14 04:51:23;;;;;;;6.28;2.20;;;18.00;99.90;;;;;;20458278;28;20047;-48
2021/07/14 05:01:24;;;;;;;5.95;2.80;;;18.00;99.90;;;;;;20452737;28;20027;-48
2021/07/14 05:11:26;;;;;;;5.60;2.50;;;18.00;99.90;;;;;;20458441;28;20087;-48
2021/07/14 05:21:27;;;;;;;7.95;2.70;;;18.10;99.90;;;;;;20454860;28;20039;-48
2021/07/14 05:31:29;;;;;;;4.95;2.33;;;18.10;99.90;;;;;;20470440;28;20208;-48
2021/07/14 05:41:30;;;;;;;7.50;2.83;;;18.00;99.90;;;;;;20471193;28;20047;-48
2021/07/14 05:51:32;;;;;;;8.38;3.38;;;18.00;99.90;;;;;;20465274;28;20043;-48
2021/07/14 06:01:34;;;;;;;8.55;3.10;;;18.20;99.90;;;;;;20461031;28;20035;-48
2021/07/14 06:11:35;;;;;;;7.20;3.05;;;18.10;99.90;;;;;;20471968;28;20054;-48
2021/07/14 06:21:36;;;;;;;9.48;4.18;;;17.90;99.90;;;;;;20474174;28;20043;-48
2021/07/14 06:31:38;;;;;;;8.02;4.20;;;18.00;99.90;;;;;;20472434;28;20054;-48
2021/07/14 06:41:39;;;;;;;10.55;3.45;;;17.90;99.90;;;;;;20471910;28;20380;-48
2021/07/14 06:51:40;;;;;;;10.65;4.07;;;17.90;99.90;;;;;;20469930;28;20043;-48
2021/07/14 07:01:41;;;;;;;12.93;3.88;;;17.80;99.90;;;;;;20465458;28;20130;-48
2021/07/14 07:11:43;;;;;;;13.70;4.90;;;17.90;99.90;;;;;;20461117;28;20045;-48
2021/07/14 07:21:44;;;;;;;9.80;4.30;;;18.10;99.90;;;;;;20465784;28;20042;-48
2021/07/14 07:31:45;;;;;;;13.43;5.18;;;18.20;99.90;;;;;;20468746;28;20057;-49
2021/07/14 07:41:47;;;;;;;10.93;5.05;;;18.40;99.90;;;;;;20467006;28;20047;-48
2021/07/14 07:51:48;;;;;;;8.82;3.72;;;18.50;99.90;;;;;;20466840;28;20039;-48
2021/07/14 08:01:50;;;;;;;15.02;5.05;;;18.50;99.90;;;;;;20466733;28;20035;-48
2021/07/14 08:11:53;;;;;;;11.13;5.22;;;18.70;99.90;;;;;;20482677;28;20411;-48
2021/07/14 08:21:54;;;;;;;9.95;3.35;;;18.70;99.90;;;;;;20466176;28;20118;-48
2021/07/14 08:31:55;;;;;;;8.20;3.70;;;18.60;99.90;;;;;;20463600;28;20039;-48
2021/07/14 08:42:01;;;;;;;16.90;4.72;;;18.60;99.90;;;;;;20461801;28;20046;-48
2021/07/14 08:52:05;;;;;;;8.77;3.58;;;18.50;99.90;;;;;;20462022;28;20174;-48
2021/07/14 09:02:06;;;;;;;8.45;3.28;;;18.60;99.90;;;;;;20468759;28;20047;-48
2021/07/14 09:12:10;;;;;;;6.97;3.13;;;18.60;99.90;;;;;;20480406;28;20080;-48
2021/07/14 09:22:27;;;;;;;4.90;2.30;;;18.70;99.90;;;;;;20477412;28;20077;-48
2021/07/14 09:32:42;;;;;;;6.37;2.00;;;18.70;99.90;;;;;;20477482;28;20054;-48
2021/07/14 09:42:58;;;;;;;9.05;2.15;;;18.80;99.90;;;;;;20477104;28;20043;-48
2021/07/14 09:53:01;;;;;;;8.30;3.53;;;18.80;99.90;;;;;;20474450;28;20138;-48
2021/07/14 10:03:04;;;;;;;9.35;3.40;;;18.90;99.90;;;;;;20475167;28;20115;-48
2021/07/14 10:13:10;;;;;;;10.80;3.85;;;18.90;99.90;;;;;;20471869;28;20226;-48
2021/07/14 10:23:17;;;;;;;10.05;4.32;;;19.10;99.90;;;;;;20469551;28;20041;-48
2021/07/14 10:33:20;;;;;;;9.87;3.20;;;19.30;99.90;;;;;;20472042;28;20544;-48
2021/07/14 10:43:25;;;;;;;9.48;4.15;;;19.40;99.90;;;;;;20469098;28;20035;-48
2021/07/14 10:53:26;;;;;;;11.18;3.60;;;19.30;99.90;;;;;;20466893;28;20054;-48
2021/07/14 11:03:36;;;;;;;8.55;3.63;;;19.20;99.90;;;;;;20469072;28;20039;-48
2021/07/14 11:13:40;;;;;;;9.90;2.95;;;19.30;99.90;;;;;;20475141;28;20047;-48
2021/07/14 11:23:46;;;;;;;13.50;3.10;;;19.40;99.90;;;;;;20468097;28;20133;-48
2021/07/14 11:33:47;;;;;;;7.72;3.47;;;19.50;99.90;;;;;;20469693;28;20122;-48
2021/07/14 11:43:52;;;;;;;10.50;3.20;;;19.60;99.90;;;;;;20469659;28;20047;-48
2021/07/14 11:53:55;;;;;;;6.93;3.15;;;19.90;99.90;;;;;;20468317;28;20045;-48
2021/07/14 12:03:59;;;;;;;7.40;3.25;;;20.20;99.90;;;;;;20464646;28;20042;-48
2021/07/14 12:14:00;;;;;;;9.93;3.72;;;20.20;99.90;;;;;;20459660;28;21484;-48
2021/07/14 12:24:03;;;;;;;6.18;2.72;;;21.10;99.90;;;;;;20435946;28;20094;-48
2021/07/14 12:34:04;;;;;;;6.18;3.10;;;21.20;99.90;;;;;;20439429;28;20050;-48
2021/07/14 12:44:07;;;;;;;4.97;2.35;;;20.90;99.90;;;;;;20437329;28;20047;-48
2021/07/14 12:54:08;;;;;;;5.80;3.28;;;21.00;99.90;;;;;;20442198;28;20047;-49
2021/07/14 13:04:14;;;;;;;36.08;14.50;;;21.10;99.90;;;;;;20464422;28;20028;-48
2021/07/14 13:14:16;;;;;;;8.18;4.22;;;21.10;99.90;;;;;;20458892;28;20039;-48
2021/07/14 13:24:17;;;;;;;6.57;3.33;;;21.20;99.90;;;;;;20458481;28;20050;-48
2021/07/14 13:34:19;;;;;;;7.10;3.00;;;21.30;99.90;;;;;;20455116;28;20054;-48
2021/07/14 13:44:29;;;;;;;10.60;3.50;;;21.50;99.90;;;;;;20458885;28;20071;-49
2021/07/14 13:54:38;;;;;;;8.52;3.75;;;21.30;99.90;;;;;;20470953;28;20091;-48
2021/07/14 14:04:45;;;;;;;15.25;3.17;;;21.20;99.90;;;;;;20483867;28;20047;-48
2021/07/14 14:14:48;;;;;;;11.15;3.35;;;21.20;99.90;;;;;;20471979;28;20050;-48
2021/07/14 14:24:49;;;;;;;9.07;3.47;;;21.00;99.90;;;;;;20457457;28;20062;-48
2021/07/14 14:34:51;;;;;;;9.35;3.70;;;20.80;99.90;;;;;;20440597;28;20079;-48
2021/07/14 14:44:52;;;;;;;6.25;2.60;;;20.80;99.90;;;;;;20446535;28;20043;-49
2021/07/14 14:54:57;;;;;;;7.88;2.92;;;20.90;99.90;;;;;;20449263;28;20264;-49
2021/07/14 15:04:58;;;;;;;7.72;3.22;;;20.90;99.90;;;;;;20460963;28;20038;-48
2021/07/14 15:15:00;;;;;;;12.82;4.25;;;21.00;99.90;;;;;;20438556;28;20046;-48
2021/07/14 15:25:09;;;;;;;7.63;3.30;;;20.90;99.90;;;;;;20435704;28;20035;-49
2021/07/14 15:35:10;;;;;;;12.05;4.15;;;20.90;99.90;;;;;;20461733;28;20035;-49
2021/07/14 15:45:12;;;;;;;10.70;3.92;;;20.90;99.90;;;;;;20437100;28;20522;-49
2021/07/14 15:55:15;;;;;;;11.32;4.32;;;20.80;99.90;;;;;;20434731;28;20049;-48
2021/07/14 16:05:17;;;;;;;11.45;3.22;;;20.60;99.90;;;;;;20460654;28;20035;-49
2021/07/14 16:15:21;;;;;;;19.25;4.00;;;20.60;99.90;;;;;;20447485;28;20505;-49
2021/07/14 16:25:22;;;;;;;11.50;4.38;;;20.40;99.90;;;;;;20456111;28;20042;-49
2021/07/14 16:35:26;;;;;;;14.50;4.38;;;20.50;99.90;;;;;;20444425;28;20054;-49
2021/07/14 16:45:27;;;;;;;7.95;3.65;;;20.50;99.90;;;;;;20403215;28;20130;-49
2021/07/14 16:55:28;;;;;;;9.55;3.70;;;20.20;99.90;;;;;;20441067;28;20043;-49
2021/07/14 17:05:30;;;;;;;9.68;4.35;;;20.20;99.90;;;;;;20389884;28;20098;-49
2021/07/14 17:15:31;;;;;;;8.98;3.85;;;20.20;99.90;;;;;;20431905;28;20127;-49
2021/07/14 17:25:33;;;;;;;8.07;3.55;;;20.70;99.90;;;;;;20436727;28;20043;-49
2021/07/14 17:35:34;;;;;;;8.93;3.83;;;21.00;99.90;;;;;;20448995;28;20332;-49
2021/07/14 17:45:35;;;;;;;10.38;3.25;;;21.00;99.90;;;;;;20453736;28;20142;-49
2021/07/14 17:55:36;;;;;;;10.75;3.83;;;20.80;99.90;;;;;;20437259;28;20051;-48
2021/07/14 18:05:38;;;;;;;8.50;4.10;;;20.70;99.90;;;;;;20436039;28;20047;-50
2021/07/14 18:15:39;;;;;;;10.65;3.92;;;20.50;99.90;;;;;;20396862;28;20067;-49
2021/07/14 18:25:41;;;;;;;7.95;2.70;;;20.50;99.90;;;;;;20405501;28;20035;-49
2021/07/14 18:35:42;;;;;;;12.98;3.47;;;20.50;99.90;;;;;;20392461;28;20929;-49
2021/07/14 18:45:44;;;;;;;11.65;3.00;;;20.50;99.90;;;;;;20442608;28;22529;-49
2021/07/14 18:55:46;;;;;;;5.88;2.45;;;20.40;99.90;;;;;;20442615;28;20039;-49
2021/07/14 19:05:48;;;;;;;11.98;3.40;;;20.20;99.90;;;;;;20452645;28;20046;-49
2021/07/14 19:15:50;;;;;;;9.45;3.83;;;20.20;99.90;;;;;;20444587;28;20043;-49
2021/07/14 19:25:51;;;;;;;9.63;3.60;;;20.10;99.90;;;;;;20434431;28;20043;-49
2021/07/14 19:35:52;;;;;;;7.30;3.33;;;20.10;99.90;;;;;;20438173;28;20413;-49
2021/07/14 19:45:54;;;;;;;13.25;4.13;;;19.90;99.90;;;;;;20454366;28;20043;-49
2021/07/14 19:55:56;;;;;;;7.45;3.28;;;20.00;99.90;;;;;;20457852;28;20082;-49
2021/07/14 20:05:57;;;;;;;7.88;3.50;;;19.70;99.90;;;;;;20450689;28;20065;-49
2021/07/14 20:15:58;;;;;;;14.68;3.85;;;19.60;99.90;;;;;;20459915;28;20035;-49
2021/07/14 20:26:00;;;;;;;10.30;3.90;;;19.60;99.90;;;;;;20441368;28;20047;-49
2021/07/14 20:36:06;;;;;;;8.50;4.65;;;19.40;99.90;;;;;;20440416;28;20047;-49
2021/07/14 20:46:07;;;;;;;9.88;3.83;;;19.40;99.90;;;;;;20445403;28;20031;-49
2021/07/14 20:56:09;;;;;;;14.75;4.70;;;19.40;99.90;;;;;;20441518;28;20260;-49
2021/07/14 21:06:10;;;;;;;13.88;5.90;;;19.40;99.90;;;;;;20453396;28;20031;-49
2021/07/14 21:16:11;;;;;;;13.38;6.28;;;19.40;99.90;;;;;;20453779;28;20134;-49
2021/07/14 21:26:12;;;;;;;14.82;6.03;;;19.40;99.90;;;;;;20458159;28;20053;-49
2021/07/14 21:36:14;;;;;;;13.35;5.85;;;19.40;99.90;;;;;;20459142;28;20038;-49
2021/07/14 21:46:15;;;;;;;15.80;5.57;;;19.40;99.90;;;;;;20449094;28;20043;-49
2021/07/14 21:56:16;;;;;;;13.55;5.57;;;19.50;99.90;;;;;;20451038;28;20050;-49
2021/07/14 22:06:17;;;;;;;15.23;6.38;;;19.40;99.90;;;;;;20460031;28;20047;-49
2021/07/14 22:16:18;;;;;;;13.75;5.13;;;19.30;99.90;;;;;;20449974;28;20047;-49
2021/07/14 22:26:38;;;;;;;9.57;4.28;;;19.30;99.90;;;;;;20451053;28;20035;-49
2021/07/14 22:36:40;;;;;;;10.25;4.30;;;19.30;99.90;;;;;;20446681;28;20042;-49
2021/07/14 22:46:42;;;;;;;12.25;4.72;;;19.40;99.90;;;;;;20413167;28;1148660;-49
2021/07/14 22:56:43;;;;;;;13.60;5.10;;;19.20;99.90;;;;;;20454270;28;20039;-49
2021/07/14 23:06:44;;;;;;;11.35;4.38;;;19.30;99.90;;;;;;20449050;28;20178;-49
2021/07/14 23:16:45;;;;;;;17.25;4.88;;;19.30;99.90;;;;;;20451170;28;20043;-49
2021/07/14 23:26:46;;;;;;;12.73;4.78;;;19.20;99.90;;;;;;20451587;28;20039;-49
2021/07/14 23:36:48;;;;;;;14.73;5.28;;;19.10;99.90;;;;;;20450719;28;20046;-49
2021/07/14 23:46:51;;;;;;;12.60;4.18;;;19.20;99.90;;;;;;20450900;28;20300;-49
2021/07/14 23:56:52;;;;;;;12.10;5.05;;;19.10;99.90;;;;;;20452382;28;20042;-49
